AFR1529 LPPR-LFPG
Flight info
| Callsign | AFR1529 |
|---|---|
| Flight time | N/A |
| Altitude | 30000 |
| Route | TURON P600 ASDEB DCT 430020N0075516W 434510N0065955W DCT LOTEE DCT 451347N0045954W DCT GATMO DCT 462635N0030007W DCT NTS UN741 KEPER |
| Aircraft | A320/M-SDE3FGHIRWY/LB1 |
Departure
| Time | N/A |
|---|---|
| Airport | Francisco de Sá Carneiro Airport (LPPR) |
Arrival
| Time | 2026-05-05 12:47 |
|---|---|
| Airport | Charles de Gaulle International Airport (LFPG) |
| Time | Latitude | Longitude | Altitude | Speed | Heading |
|---|---|---|---|---|---|
| 2026-05-05 12:03 | 47.02801 | -1.87233 | 29878 ft | 431 kts | 55° |
| 2026-05-05 12:03 | 47.06420 | -1.80201 | 29879 ft | 432 kts | 55° |
| 2026-05-05 12:04 | 47.10034 | -1.73167 | 29887 ft | 433 kts | 55° |
| 2026-05-05 12:04 | 47.13644 | -1.66122 | 29889 ft | 433 kts | 55° |
| 2026-05-05 12:05 | 47.17268 | -1.59017 | 29885 ft | 433 kts | 56° |
| 2026-05-05 12:05 | 47.20840 | -1.51879 | 29880 ft | 433 kts | 56° |
| 2026-05-05 12:06 | 47.24379 | -1.44772 | 29882 ft | 433 kts | 56° |
| 2026-05-05 12:06 | 47.27932 | -1.37623 | 29869 ft | 433 kts | 56° |
| 2026-05-05 12:07 | 47.31499 | -1.30425 | 29862 ft | 433 kts | 57° |
| 2026-05-05 12:07 | 47.35042 | -1.23255 | 29861 ft | 434 kts | 57° |
| 2026-05-05 12:08 | 47.38530 | -1.16182 | 29853 ft | 434 kts | 57° |
| 2026-05-05 12:08 | 47.42075 | -1.08973 | 29857 ft | 435 kts | 57° |
| 2026-05-05 12:09 | 47.45622 | -1.01741 | 29854 ft | 436 kts | 57° |
| 2026-05-05 12:09 | 47.49166 | -0.94500 | 29861 ft | 436 kts | 57° |
| 2026-05-05 12:10 | 47.52483 | -0.87018 | 29857 ft | 434 kts | 62° |
| 2026-05-05 12:10 | 47.55157 | -0.79009 | 29861 ft | 433 kts | 69° |
| 2026-05-05 12:11 | 47.57274 | -0.70685 | 29859 ft | 432 kts | 71° |
| 2026-05-05 12:11 | 47.59307 | -0.62346 | 29863 ft | 433 kts | 71° |
| 2026-05-05 12:12 | 47.61346 | -0.53953 | 29863 ft | 433 kts | 72° |
| 2026-05-05 12:12 | 47.63366 | -0.45586 | 29866 ft | 434 kts | 72° |
| 2026-05-05 12:13 | 47.64210 | -0.42078 | 29866 ft | 434 kts | 72° |
| 2026-05-05 12:13 | 47.66757 | -0.31444 | 29866 ft | 434 kts | 72° |
| 2026-05-05 12:14 | 47.68769 | -0.23006 | 29856 ft | 434 kts | 72° |
| 2026-05-05 12:14 | 47.70783 | -0.14542 | 29857 ft | 435 kts | 72° |
| 2026-05-05 12:15 | 47.72786 | -0.06091 | 29849 ft | 436 kts | 72° |
| 2026-05-05 12:15 | 47.74792 | 0.02405 | 29851 ft | 436 kts | 73° |
| 2026-05-05 12:16 | 47.76775 | 0.10870 | 29648 ft | 437 kts | 73° |
| 2026-05-05 12:16 | 47.77770 | 0.15135 | 29371 ft | 435 kts | 73° |
| 2026-05-05 12:16 | 47.78761 | 0.19379 | 29060 ft | 434 kts | 73° |
| 2026-05-05 12:17 | 47.79888 | 0.23517 | 28370 ft | 435 kts | 64° |
| 2026-05-05 12:17 | 47.81542 | 0.27272 | 27446 ft | 439 kts | 53° |
| 2026-05-05 12:17 | 47.83711 | 0.30494 | 27029 ft | 445 kts | 41° |
| 2026-05-05 12:17 | 47.86169 | 0.33207 | 26787 ft | 447 kts | 38° |
| 2026-05-05 12:18 | 47.88748 | 0.35897 | 26511 ft | 446 kts | 37° |
| 2026-05-05 12:18 | 47.91280 | 0.38516 | 26225 ft | 440 kts | 37° |
| 2026-05-05 12:18 | 47.93723 | 0.41051 | 25929 ft | 425 kts | 37° |
| 2026-05-05 12:18 | 47.96128 | 0.43557 | 25655 ft | 421 kts | 37° |
| 2026-05-05 12:19 | 47.98521 | 0.46061 | 25380 ft | 420 kts | 37° |
| 2026-05-05 12:19 | 48.00907 | 0.48568 | 25098 ft | 419 kts | 37° |
| 2026-05-05 12:19 | 48.03271 | 0.51055 | 24824 ft | 418 kts | 37° |
| 2026-05-05 12:19 | 48.05651 | 0.53566 | 24543 ft | 417 kts | 36° |
| 2026-05-05 12:20 | 48.08005 | 0.56050 | 24271 ft | 416 kts | 37° |
| 2026-05-05 12:20 | 48.10368 | 0.58544 | 24005 ft | 414 kts | 36° |
| 2026-05-05 12:20 | 48.12710 | 0.61021 | 23734 ft | 412 kts | 36° |
| 2026-05-05 12:20 | 48.15046 | 0.63494 | 23470 ft | 412 kts | 37° |
| 2026-05-05 12:21 | 48.17363 | 0.65941 | 23206 ft | 411 kts | 37° |
| 2026-05-05 12:21 | 48.19704 | 0.68428 | 22940 ft | 410 kts | 36° |
| 2026-05-05 12:21 | 48.22015 | 0.70888 | 22677 ft | 407 kts | 37° |
| 2026-05-05 12:21 | 48.24317 | 0.73335 | 22411 ft | 407 kts | 37° |
| 2026-05-05 12:22 | 48.26629 | 0.75796 | 22151 ft | 405 kts | 37° |
| 2026-05-05 12:22 | 48.28909 | 0.78226 | 21889 ft | 404 kts | 37° |
| 2026-05-05 12:22 | 48.31194 | 0.80663 | 21629 ft | 403 kts | 37° |
| 2026-05-05 12:22 | 48.33364 | 0.83285 | 21362 ft | 400 kts | 45° |
| 2026-05-05 12:23 | 48.35209 | 0.86430 | 21067 ft | 397 kts | 55° |
| 2026-05-05 12:23 | 48.36657 | 0.89923 | 20698 ft | 394 kts | 62° |
| 2026-05-05 12:23 | 48.37919 | 0.93553 | 20232 ft | 393 kts | 64° |
| 2026-05-05 12:23 | 48.39146 | 0.97172 | 19696 ft | 389 kts | 64° |
| 2026-05-05 12:24 | 48.40369 | 1.00763 | 19129 ft | 386 kts | 64° |
| 2026-05-05 12:24 | 48.41604 | 1.04361 | 18602 ft | 382 kts | 63° |
| 2026-05-05 12:24 | 48.42824 | 1.07902 | 18568 ft | 385 kts | 63° |
| 2026-05-05 12:24 | 48.44059 | 1.11487 | 18559 ft | 386 kts | 63° |
| 2026-05-05 12:25 | 48.45301 | 1.15101 | 18088 ft | 387 kts | 63° |
| 2026-05-05 12:25 | 48.46523 | 1.18661 | 17468 ft | 383 kts | 64° |
| 2026-05-05 12:25 | 48.47721 | 1.22155 | 16871 ft | 380 kts | 64° |
| 2026-05-05 12:25 | 48.48925 | 1.25679 | 16276 ft | 377 kts | 64° |
| 2026-05-05 12:26 | 48.50120 | 1.29175 | 15685 ft | 373 kts | 64° |
| 2026-05-05 12:26 | 48.51301 | 1.32633 | 15137 ft | 369 kts | 64° |
| 2026-05-05 12:26 | 48.52457 | 1.36003 | 14776 ft | 360 kts | 64° |
| 2026-05-05 12:26 | 48.53594 | 1.39310 | 14504 ft | 342 kts | 64° |
| 2026-05-05 12:27 | 48.54638 | 1.42346 | 14320 ft | 314 kts | 64° |
| 2026-05-05 12:27 | 48.55609 | 1.45180 | 14137 ft | 299 kts | 64° |
| 2026-05-05 12:27 | 48.56558 | 1.47946 | 13961 ft | 295 kts | 62° |
| 2026-05-05 12:27 | 48.57776 | 1.50393 | 13484 ft | 299 kts | 44° |
| 2026-05-05 12:28 | 48.59516 | 1.52174 | 12945 ft | 304 kts | 29° |
| 2026-05-05 12:28 | 48.61394 | 1.53555 | 12595 ft | 301 kts | 27° |
| 2026-05-05 12:28 | 48.63291 | 1.54904 | 12226 ft | 297 kts | 28° |
| 2026-05-05 12:28 | 48.65144 | 1.56239 | 11797 ft | 296 kts | 28° |
| 2026-05-05 12:29 | 48.66895 | 1.57888 | 11116 ft | 302 kts | 38° |
| 2026-05-05 12:29 | 48.68551 | 1.59840 | 10287 ft | 312 kts | 40° |
| 2026-05-05 12:29 | 48.70204 | 1.61873 | 9703 ft | 299 kts | 41° |
| 2026-05-05 12:29 | 48.71761 | 1.63798 | 9259 ft | 280 kts | 41° |
| 2026-05-05 12:30 | 48.73235 | 1.65632 | 8622 ft | 272 kts | 41° |
| 2026-05-05 12:30 | 48.74670 | 1.67429 | 8059 ft | 267 kts | 41° |
| 2026-05-05 12:30 | 48.76071 | 1.69201 | 7637 ft | 261 kts | 41° |
| 2026-05-05 12:30 | 48.77454 | 1.70964 | 7208 ft | 260 kts | 41° |
| 2026-05-05 12:31 | 48.78822 | 1.72714 | 6881 ft | 255 kts | 41° |
| 2026-05-05 12:31 | 48.80152 | 1.74421 | 6825 ft | 247 kts | 41° |
| 2026-05-05 12:31 | 48.81430 | 1.76058 | 6818 ft | 231 kts | 41° |
| 2026-05-05 12:31 | 48.82629 | 1.77588 | 6813 ft | 217 kts | 41° |
| 2026-05-05 12:32 | 48.83733 | 1.78991 | 6812 ft | 202 kts | 41° |
| 2026-05-05 12:32 | 48.84805 | 1.80356 | 6817 ft | 199 kts | 45° |
| 2026-05-05 12:32 | 48.85628 | 1.81977 | 6803 ft | 193 kts | 61° |
| 2026-05-05 12:32 | 48.86229 | 1.83746 | 6675 ft | 185 kts | 64° |
| 2026-05-05 12:33 | 48.86793 | 1.85478 | 6584 ft | 174 kts | 63° |
| 2026-05-05 12:33 | 48.87309 | 1.87015 | 6489 ft | 156 kts | 63° |
| 2026-05-05 12:33 | 48.87786 | 1.88402 | 6329 ft | 141 kts | 62° |
| 2026-05-05 12:33 | 48.88229 | 1.89670 | 6215 ft | 134 kts | 62° |
| 2026-05-05 12:34 | 48.88667 | 1.90908 | 6095 ft | 132 kts | 61° |
| 2026-05-05 12:34 | 48.89103 | 1.92131 | 5973 ft | 132 kts | 61° |
| 2026-05-05 12:34 | 48.89544 | 1.93361 | 5849 ft | 132 kts | 61° |
| 2026-05-05 12:34 | 48.89983 | 1.94580 | 5725 ft | 131 kts | 61° |
| 2026-05-05 12:35 | 48.90419 | 1.95793 | 5607 ft | 131 kts | 61° |
| 2026-05-05 12:35 | 48.90859 | 1.97009 | 5484 ft | 131 kts | 60° |
| 2026-05-05 12:35 | 48.91294 | 1.98214 | 5354 ft | 130 kts | 61° |
| 2026-05-05 12:35 | 48.91729 | 1.99422 | 5228 ft | 130 kts | 60° |
| 2026-05-05 12:36 | 48.92164 | 2.00625 | 5113 ft | 130 kts | 60° |
| 2026-05-05 12:36 | 48.92601 | 2.01838 | 4988 ft | 130 kts | 61° |
| 2026-05-05 12:36 | 48.93032 | 2.03038 | 4974 ft | 129 kts | 60° |
| 2026-05-05 12:36 | 48.93461 | 2.04232 | 4966 ft | 129 kts | 60° |
| 2026-05-05 12:37 | 48.93894 | 2.05432 | 4961 ft | 129 kts | 60° |
| 2026-05-05 12:37 | 48.94331 | 2.06643 | 4960 ft | 129 kts | 60° |
| 2026-05-05 12:37 | 48.94759 | 2.07831 | 4961 ft | 129 kts | 60° |
| 2026-05-05 12:37 | 48.95196 | 2.09047 | 4963 ft | 129 kts | 60° |
| 2026-05-05 12:38 | 48.95626 | 2.10241 | 4962 ft | 129 kts | 60° |
| 2026-05-05 12:38 | 48.96029 | 2.11472 | 4965 ft | 129 kts | 64° |
| 2026-05-05 12:38 | 48.96391 | 2.12710 | 4964 ft | 129 kts | 67° |
| 2026-05-05 12:38 | 48.96670 | 2.14022 | 4973 ft | 130 kts | 73° |
| 2026-05-05 12:39 | 48.96865 | 2.15376 | 4965 ft | 130 kts | 77° |
| 2026-05-05 12:39 | 48.97020 | 2.16719 | 4969 ft | 129 kts | 79° |
| 2026-05-05 12:39 | 48.97168 | 2.18071 | 4971 ft | 129 kts | 78° |
| 2026-05-05 12:39 | 48.97297 | 2.19419 | 4970 ft | 129 kts | 78° |
| 2026-05-05 12:40 | 48.97414 | 2.20781 | 4866 ft | 129 kts | 80° |
| 2026-05-05 12:40 | 48.97514 | 2.22131 | 4690 ft | 129 kts | 80° |
| 2026-05-05 12:40 | 48.97606 | 2.23488 | 4522 ft | 128 kts | 80° |
| 2026-05-05 12:40 | 48.97694 | 2.24822 | 4357 ft | 128 kts | 80° |
| 2026-05-05 12:41 | 48.97769 | 2.26176 | 4189 ft | 127 kts | 81° |
| 2026-05-05 12:41 | 48.97837 | 2.27509 | 4022 ft | 127 kts | 81° |
| 2026-05-05 12:41 | 48.97902 | 2.28855 | 3855 ft | 127 kts | 81° |
| 2026-05-05 12:41 | 48.97964 | 2.30170 | 3689 ft | 126 kts | 81° |
| 2026-05-05 12:42 | 48.98025 | 2.31505 | 3521 ft | 126 kts | 81° |
| 2026-05-05 12:42 | 48.98085 | 2.32842 | 3353 ft | 125 kts | 81° |
| 2026-05-05 12:42 | 48.98145 | 2.34153 | 3188 ft | 125 kts | 81° |
| 2026-05-05 12:42 | 48.98206 | 2.35468 | 3022 ft | 125 kts | 80° |
| 2026-05-05 12:43 | 48.98269 | 2.36785 | 2853 ft | 124 kts | 81° |
| 2026-05-05 12:43 | 48.98331 | 2.38090 | 2686 ft | 124 kts | 79° |
| 2026-05-05 12:43 | 48.98395 | 2.39395 | 2521 ft | 123 kts | 79° |
| 2026-05-05 12:43 | 48.98461 | 2.40689 | 2358 ft | 123 kts | 79° |
| 2026-05-05 12:44 | 48.98526 | 2.41992 | 2197 ft | 123 kts | 80° |
| 2026-05-05 12:44 | 48.98592 | 2.43298 | 2036 ft | 123 kts | 81° |
| 2026-05-05 12:44 | 48.98657 | 2.44592 | 1868 ft | 122 kts | 79° |
| 2026-05-05 12:44 | 48.98724 | 2.45869 | 1703 ft | 122 kts | 80° |
| 2026-05-05 12:45 | 48.98792 | 2.47162 | 1540 ft | 122 kts | 80° |
| 2026-05-05 12:45 | 48.98859 | 2.48436 | 1383 ft | 121 kts | 82° |
| 2026-05-05 12:45 | 48.98926 | 2.49717 | 1217 ft | 121 kts | 81° |
| 2026-05-05 12:45 | 48.98993 | 2.50991 | 1054 ft | 121 kts | 80° |
| 2026-05-05 12:46 | 48.99059 | 2.52266 | 899 ft | 120 kts | 81° |
| 2026-05-05 12:46 | 48.99126 | 2.53537 | 731 ft | 120 kts | 80° |
| 2026-05-05 12:46 | 48.99195 | 2.54796 | 582 ft | 119 kts | 81° |
| 2026-05-05 12:46 | 48.99261 | 2.56038 | 416 ft | 117 kts | 81° |
| 2026-05-05 12:47 | 48.99336 | 2.57236 | 324 ft | 98 kts | 81° |
| 2026-05-05 12:47 | 48.99377 | 2.58015 | 324 ft | 62 kts | 88° |
| 2026-05-05 12:47 | 48.99419 | 2.58528 | 322 ft | 35 kts | 69° |
| 2026-05-05 12:47 | 48.99504 | 2.58828 | 324 ft | 22 kts | 67° |
| 2026-05-05 12:48 | 48.99571 | 2.59034 | 322 ft | 20 kts | 62° |
| 2026-05-05 12:48 | 48.99608 | 2.59239 | 323 ft | 20 kts | 78° |
| 2026-05-05 12:48 | 48.99618 | 2.59437 | 323 ft | 18 kts | 81° |
| 2026-05-05 12:48 | 48.99640 | 2.59634 | 321 ft | 19 kts | 64° |
| 2026-05-05 12:49 | 48.99759 | 2.59681 | 322 ft | 18 kts | 352° |
| 2026-05-05 12:49 | 48.99880 | 2.59660 | 324 ft | 17 kts | 354° |
| 2026-05-05 12:49 | 49.00006 | 2.59651 | 324 ft | 18 kts | 356° |
| 2026-05-05 12:49 | 49.00137 | 2.59634 | 326 ft | 18 kts | 354° |
| 2026-05-05 12:50 | 49.00272 | 2.59616 | 327 ft | 20 kts | 354° |
| 2026-05-05 12:50 | 49.00415 | 2.59598 | 329 ft | 20 kts | 355° |
| 2026-05-05 12:50 | 49.00558 | 2.59581 | 330 ft | 21 kts | 356° |
| 2026-05-05 12:50 | 49.00709 | 2.59564 | 330 ft | 22 kts | 354° |
| 2026-05-05 12:51 | 49.00861 | 2.59545 | 334 ft | 21 kts | 356° |
| 2026-05-05 12:51 | 49.00997 | 2.59478 | 334 ft | 21 kts | 290° |
| 2026-05-05 12:51 | 49.00991 | 2.59239 | 334 ft | 23 kts | 266° |
| 2026-05-05 12:51 | 49.00963 | 2.58988 | 334 ft | 25 kts | 251° |
| 2026-05-05 12:52 | 49.00941 | 2.58726 | 336 ft | 25 kts | 265° |
| 2026-05-05 12:52 | 49.00926 | 2.58450 | 335 ft | 26 kts | 265° |
| 2026-05-05 12:52 | 49.00904 | 2.58284 | 335 ft | 13 kts | 223° |
| 2026-05-05 12:52 | 49.00837 | 2.58250 | 335 ft | 10 kts | 189° |
| 2026-05-05 12:53 | 49.00755 | 2.58231 | 335 ft | 13 kts | 179° |
| 2026-05-05 12:53 | 49.00680 | 2.58239 | 334 ft | 5 kts | 172° |
| 2026-05-05 12:53 | 49.00663 | 2.58304 | 334 ft | 7 kts | 83° |
| 2026-05-05 12:53 | 49.00667 | 2.58375 | 334 ft | 0 kts | 85° |